Tiempo atmosférico en la estación meteorológica de Villena, Alacant/Alicante (486 m.)



Fecha
DESCASC
Temp. máxima en grados centígrados (hora)
DESCASC
Temp. mínima en grados centígrados (hora)
DESCASC
Temp. media en grados centígrados
DESCASC
Racha de viento máxima en m/sg (hora)
DESCASC
Velocidad máxima media en intervalos de 10 minutos(hora)
DESCASC
Precipitaciones diarias en mm
DESCASC
Precipitaciones de 00:00 a 06:00 en mm
DESCASC
Precipitaciones de 06:00 a 12:00 en mm
DESCASC
Precipitaciones de 12:00 a 18:00 en mm
DESCASC
Precipitaciones de 18:00 a 24:00 en mm
DESCASC
22-01-2020 10.3 (14:00) 1.2 (08:40) 5.8 10 (15:30) 6.94 (15:30) 0.2 0.2 0 0 0
21-01-2020 10 (15:00) 3.1 (01:50) 6.5 8.89 (06:20) 6.11 (06:20) 14.4 7.6 5.2 0 1.6
20-01-2020 3.9 (22:30) 0 (06:30) 2 16.39 (01:30) 9.72 (03:00) 63.8 16.8 8.2 29.6 9.2
19-01-2020 8.3 (10:00) 1.4 (00:00) 4.9 21.39 (21:10) 11.94 (19:30) 33.2 1.2 0.2 13 18.8
18-01-2020 15 (15:30) 2.6 (00:00) 8.8 8.06 (15:50) 5 (15:50) 0 0 0 0 0
17-01-2020 16.6 (14:40) -3.7 (-00:0) 6.5 15.83 (12:20) 10.56 (12:30) 0 0 0 0 0
16-01-2020 17.2 (15:00) -1.7 (-00:0) 7.8 6.67 (14:00) 4.17 (19:30) 0 0 0 0 0
15-01-2020 16.6 (15:30) -3.1 (-00:0) 6.8 9.72 (15:50) 5.83 (16:00) 0 0 0 0 0
14-01-2020 15.3 (16:10) -1.3 (-00:0) 7 8.33 (13:30) 5.28 (13:30) 0 0 0 0 0
13-01-2020 15.1 (15:20) -7.4 (-00:0) 3.9 5.28 (15:50) 3.06 (15:50) 0 0 0 0 0
12-01-2020 14.6 (15:00) -4.9 (-00:0) 4.9 5.28 (17:10) 3.33 (17:10) 0 0 0 0 0
11-01-2020 13.2 (15:30) -1.9 (-00:0) 5.6 5.28 (11:30) 3.33 (11:30) 0 0 0 0 0
10-01-2020 13.7 (14:10) -0.8 (-00:0) 6.4 12.22 (18:00) 8.06 (17:50) 0 0 0 0 0
09-01-2020 13.7 (16:30) 0.1 (00:00) 6.9 5 (18:30) 4.17 (18:30) 0 0 0 0 0
08-01-2020 16 (14:10) -2.2 (-00:0) 6.9 6.94 (14:30) 4.72 (14:30) 0 0 0 0 0
07-01-2020 16.6 (15:00) -4.2 (-00:0) 6.2 6.11 (16:40) 4.44 (16:50) 0 0 0 0 0
06-01-2020 15.8 (15:20) -3.9 (-00:0) 6 5.28 (17:30) 4.17 (17:40) 0 0 0 0 0
05-01-2020 15.6 (16:20) -3.6 (-00:0) 6 3.33 (19:40) 2.78 (19:50) 0 0 0 0 0
04-01-2020 14.6 (15:30) -2 (-00:0) 6.3 6.11 (00:10) 3.89 (00:20) 0 0 0 0 0
03-01-2020 17.8 (15:10) -1.7 (-00:0) 8 6.67 (16:10) 4.72 (17:50) 0.2 0.2 0 0 0
02-01-2020 8.9 (16:00) 1.6 (00:00) 5.2 5.83 (15:40) 4.17 (15:30) 0.2 0.2 0 0 0
01-01-2020 14.5 (15:50) -1.9 (-00:0) 6.3 5.28 (17:10) 4.44 (19:00) 0.2 0 0.2 0 0
31-12-2019 11.6 (15:30) -0.4 (00:00) 5.6 5.56 (16:00) 4.17 (16:00) 0 0 0 0 0
30-12-2019 14 (15:30) 0.1 (00:00) 7.1 -- (--) -- (--) 0 0 0 0 0
29-12-2019 13.8 (15:50) 0.2 (00:00) 7 4.17 (16:10) 3.33 (18:00) 0.2 0.2 0 0 0
28-12-2019 16.2 (14:30) -4.1 (-00:0) 6.1 6.11 (17:40) 4.44 (17:10) 0 0 0 0 0
27-12-2019 17.4 (15:30) -1.8 (-00:0) 7.8 3.33 (21:20) 2.78 (21:20) 0 0 0 0 0

Gráficas

Temp. máximas Temp. mínimas Temp. medias Precipitaciones Rachas de viento máximas Velocidades máximas media en intervalos de 10 minutos

Datos horarios

Fecha y hora oficial Temperatura (ºC) Velocidad del viento (km/h) Dirección del viento Racha (km/h) Dirección de racha Precipitación (mm) Presión (hPa) Tendencia (hPa) Humedad (%)
2020-01-25 23:00:00 6.3 0 Calma 6 Oeste 0 -- -- 96
2020-01-25 22:00:00 7.1 4 Norte 6 Sur 0 -- -- 96
2020-01-25 21:00:00 8.4 6 Sudeste 9 Este 0 -- -- 96
2020-01-25 20:00:00 8.1 0 Calma 9 Sudeste 0 -- -- 94
2020-01-25 19:00:00 8.8 0 Calma 10 Norte 0 -- -- 93
2020-01-25 18:00:00 9.2 8 Norte 13 Norte 0 -- -- 92
2020-01-25 17:00:00 9.7 9 Norte 16 Norte 0.2 -- -- 92
2020-01-25 16:00:00 10.5 3 Nordeste 10 Oeste 0.2 -- -- 89
2020-01-25 15:00:00 10.8 5 Norte 10 Noroeste 0 -- -- 84
2020-01-25 14:00:00 9.7 6 Noroeste 11 Noroeste 0 -- -- 94
2020-01-25 13:00:00 8.4 8 Oeste 12 Norte 0 -- -- 98
2020-01-25 12:00:00 6.9 8 Norte 10 Norte 0 -- -- 99
2020-01-25 11:00:00 6.6 6 Noroeste 10 Noroeste 0 -- -- 99
2020-01-25 10:00:00 5.5 6 Noroeste 9 Noroeste 0.2 -- -- 99
2020-01-25 09:00:00 4.3 5 Noroeste 10 Noroeste 0 -- -- 99
2020-01-25 08:00:00 3.4 4 Noroeste 6 Norte 0 -- -- 99
2020-01-25 07:00:00 3 3 Noroeste 8 Norte 0 -- -- 99
2020-01-25 06:00:00 2.8 0 Calma 4 Nordeste 0 -- -- 98
2020-01-25 05:00:00 2.8 0 Calma 6 Noroeste 0 -- -- 98
2020-01-25 04:00:00 3 4 Noroeste 5 Oeste 0 -- -- 98
2020-01-25 03:00:00 2.8 0 Calma 4 Norte 0 -- -- 96
2020-01-25 02:00:00 3.8 2 Noroeste 5 Norte 0 -- -- 97
2020-01-25 01:00:00 4.5 3 Noroeste 6 Oeste 0 -- -- 97
2020-01-25 00:00:00 5.1 4 Oeste 10 Noroeste 0 -- -- 96
2020-01-24 23:00:00 4.8 3 Noroeste 5 Norte 0 -- -- 95
2020-01-24 22:00:00 5.5 0 Calma 6 Oeste 0 -- -- 94
2020-01-24 21:00:00 7.2 2 Nordeste 5 Noroeste 0 -- -- 93
2020-01-24 20:00:00 8.5 3 Norte 6 Norte 0 -- -- 90
2020-01-24 19:00:00 9.4 3 Norte 9 Nordeste 0 -- -- 88
2020-01-24 18:00:00 10.6 0 Calma 7 Nordeste 0 -- -- 82
2020-01-24 17:00:00 11.2 2 Sudoeste 3 Sudoeste 0 -- -- 77
2020-01-24 16:00:00 11.1 0 Calma 8 Norte 0 -- -- 77
2020-01-24 15:00:00 10.8 4 Norte 8 Norte 0 -- -- 79
2020-01-24 14:00:00 10 2 Noroeste 8 Noroeste 0 -- -- 85
2020-01-24 13:00:00 9.4 4 Norte 8 Nordeste 0 -- -- 90
2020-01-24 12:00:00 8.4 4 Noroeste 11 Noroeste 0 -- -- 96
2020-01-24 11:00:00 7.3 6 Noroeste 14 Noroeste 0 -- -- 99
2020-01-24 10:00:00 5.9 8 Noroeste 14 Oeste 0 -- -- 100
2020-01-24 09:00:00 4.1 0 Calma 12 Oeste 0 -- -- 99
2020-01-24 08:00:00 2.7 5 Noroeste 12 Noroeste 0 -- -- 99
2020-01-24 07:00:00 1.6 5 Noroeste 8 Noroeste 0 -- -- 99
2020-01-24 06:00:00 1.6 6 Noroeste 10 Noroeste 0 -- -- 98
2020-01-24 05:00:00 3.2 4 Noroeste 13 Oeste 0 -- -- 97
2020-01-24 04:00:00 3.4 6 Norte 18 Oeste 0 -- -- 98
2020-01-24 03:00:00 2.8 9 Noroeste 14 Noroeste 0 -- -- 98
2020-01-24 02:00:00 2.7 3 Noroeste 5 Noroeste 0 -- -- 97
2020-01-24 01:00:00 3.3 0 Calma 4 Sudoeste 0 -- -- 97
2020-01-24 00:00:00 3.3 0 Calma 5 Norte 0 -- -- 96
2020-01-23 23:00:00 3 0 Calma 5 Noroeste 0 -- -- 95
2020-01-23 22:00:00 3.8 0 Calma 4 Oeste 0 -- -- 92
2020-01-23 21:00:00 5.5 0 Calma 6 Sudeste 0 -- -- 91
2020-01-23 20:00:00 7.6 2 Sur 17 Sudeste 0 -- -- 89
2020-01-23 19:00:00 8.6 7 Sudeste 13 Sudeste 0 -- -- 88
2020-01-23 18:00:00 9.9 8 Sur 15 Sudeste 0 -- -- 85
2020-01-23 17:00:00 10.9 13 Sur 22 Sur 0 -- -- 78
2020-01-23 16:00:00 11.3 15 Sur 22 Sudeste 0 -- -- 74
2020-01-23 15:00:00 10.9 18 Sur 29 Sur 0 -- -- 79
2020-01-23 14:00:00 10.7 22 Sur 28 Sur 0 -- -- 79
2020-01-23 13:00:00 9.5 3 Oeste 7 Noroeste 0 -- -- 88
2020-01-23 12:00:00 7 0 Calma 6 Noroeste 0 -- -- 97
2020-01-23 11:00:00 4.5 3 Noroeste 6 Norte 0 -- -- 99
2020-01-23 10:00:00 2.7 0 Calma 3 Sudoeste 0 -- -- 99
2020-01-23 09:00:00 0.7 2 Noroeste 4 Norte 0 -- -- 98
2020-01-23 08:00:00 0.9 2 Oeste 3 Oeste 0 -- -- 98
2020-01-23 07:00:00 0.3 2 Norte 2 Norte 0 -- -- 98
2020-01-23 06:00:00 0.6 0 Calma 4 Oeste 0 -- -- 98
2020-01-23 05:00:00 1.2 0 Calma 4 Noroeste 0 -- -- 97
2020-01-23 04:00:00 1 2 Noroeste 4 Oeste 0 -- -- 98
2020-01-23 03:00:00 1.4 0 Calma 7 Oeste 0 -- -- 98
2020-01-23 02:00:00 1.3 3 Norte 4 Norte 0 -- -- 97
2020-01-23 01:00:00 2.1 2 Noroeste 5 Noroeste 0 -- -- 96
2020-01-23 00:00:00 2.5 3 Noroeste 5 Noroeste 0 -- -- 96
2020-01-22 23:00:00 3.3 2 Nordeste 7 Noroeste 0 -- -- 95
2020-01-22 22:00:00 4.3 2 Norte 8 Noroeste 0 -- -- 94
2020-01-22 21:00:00 5.4 7 Noroeste 9 Noroeste 0 -- -- 94
2020-01-22 20:00:00 6 4 Norte 19 Norte 0 -- -- 92
2020-01-22 19:00:00 7.5 9 Norte 18 Norte 0 -- -- 89
2020-01-22 18:00:00 8.6 6 Noroeste 18 Nordeste 0 -- -- 87
2020-01-22 17:00:00 9.1 14 Nordeste 35 Nordeste 0 -- -- 85
2020-01-22 16:00:00 9.8 22 Nordeste 36 Nordeste 0 -- -- 82
2020-01-22 15:00:00 10 23 Nordeste 33 Nordeste 0 -- -- 84
2020-01-22 14:00:00 10.3 18 Nordeste 28 Nordeste 0 -- -- 82
2020-01-22 13:00:00 10 15 Nordeste 24 Norte 0 -- -- 81
2020-01-22 12:00:00 9 16 Norte 27 Norte 0 -- -- 85
2020-01-22 11:00:00 7 9 Noroeste 13 Norte 0 -- -- 98
2020-01-22 10:00:00 4.2 5 Noroeste 10 Oeste 0 -- -- 99
2020-01-22 09:00:00 2.3 9 Norte 13 Norte 0 -- -- 99
2020-01-22 08:00:00 1.9 0 Calma 6 Noroeste 0 -- -- 98
2020-01-22 07:00:00 3.2 6 Noroeste 9 Norte 0 -- -- 98
2020-01-22 06:00:00 1.9 5 Noroeste 7 Noroeste 0 -- -- 99
2020-01-22 05:00:00 2.6 2 Oeste 5 Nordeste 0 -- -- 98
2020-01-22 04:00:00 4.2 3 Oeste 9 Sudoeste 0 -- -- 98
2020-01-22 03:00:00 4.3 2 Oeste 4 Oeste 0.2 -- -- 98
2020-01-22 02:00:00 4.6 2 Noroeste 3 Noroeste 0 -- -- 97
2020-01-22 01:00:00 5.5 3 Nordeste 5 Nordeste 0 -- -- 97
2020-01-22 00:00:00 5.5 2 Norte 6 Sudeste 0.8 -- -- 97
2020-01-21 23:00:00 5.6 3 Nordeste 7 Noroeste 0 -- -- 97
2020-01-21 22:00:00 5.9 3 Norte 6 Norte 0.2 -- -- 96
2020-01-21 21:00:00 6.4 0 Calma 6 Sudeste 0 -- -- 96
2020-01-21 20:00:00 7.2 8 Sur 14 Sur 0.6 -- -- 95
2020-01-21 19:00:00 7.2 0 Calma 7 Sur 0 -- -- 94
2020-01-21 18:00:00 7.8 4 Nordeste 12 Sudoeste 0 -- -- 92
2020-01-21 17:00:00 8.4 4 Oeste 15 Oeste 0 -- -- 90
2020-01-21 16:00:00 9.2 10 Noroeste 24 Noroeste 0 -- -- 86
2020-01-21 15:00:00 10 17 Oeste 31 Oeste 0 -- -- 84
2020-01-21 14:00:00 9 10 Norte 21 Norte 0 -- -- 89
2020-01-21 13:00:00 7.6 10 Norte 25 Nordeste 0 -- -- 96
2020-01-21 12:00:00 7.5 13 Norte 24 Norte 0 -- -- 96
2020-01-21 11:00:00 6.2 10 Norte 22 Norte 0.6 -- -- 98
2020-01-21 10:00:00 4.7 13 Norte 22 Norte 1.2 -- -- 98
2020-01-21 09:00:00 4.7 14 Norte 22 Norte 1 -- -- 98
2020-01-21 08:00:00 4.5 17 Norte 30 Nordeste 1.4 -- -- 97
2020-01-21 07:00:00 4.6 21 Norte 32 Norte 1 -- -- 98
2020-01-21 06:00:00 4.3 21 Norte 30 Norte 1.8 -- -- 98
2020-01-21 05:00:00 3.5 15 Norte 25 Norte 0.2 -- -- 98
2020-01-21 04:00:00 3.1 14 Norte 28 Norte 4.2 -- -- 98
2020-01-21 03:00:00 3.6 19 Norte 27 Norte 1.4 -- -- 96
2020-01-21 02:00:00 3.3 14 Norte 30 Nordeste 0 -- -- 96
2020-01-21 01:00:00 3.9 20 Nordeste 31 Nordeste 0 -- -- 95
2020-01-21 00:00:00 3.4 16 Norte 37 Nordeste 1.2 -- -- 96
2020-01-20 23:00:00 3.8 23 Nordeste 36 Nordeste 0.8 -- -- 96
2020-01-20 22:00:00 3.8 23 Nordeste 36 Nordeste 0.6 -- -- 97
2020-01-20 21:00:00 3.3 21 Nordeste 30 Nordeste 2.6 -- -- 97
2020-01-20 20:00:00 3.4 17 Nordeste 42 Nordeste 2.4 -- -- 97
2020-01-20 19:00:00 3.6 30 Nordeste 44 Nordeste 1.6 -- -- 98
2020-01-20 18:00:00 2.4 22 Nordeste 35 Nordeste 4.8 -- -- 99
2020-01-20 17:00:00 1.9 24 Nordeste 47 Nordeste 4.4 -- -- 99
2020-01-20 16:00:00 2.3 22 Norte 40 Nordeste 5 -- -- 99
2020-01-20 15:00:00 1.9 18 Norte 39 Norte 5.6 -- -- 99
2020-01-20 14:00:00 2.5 26 Nordeste 41 Nordeste 4.2 -- -- 99
2020-01-20 13:00:00 2.2 19 Norte 42 Nordeste 5.6 -- -- 100
2020-01-20 12:00:00 1.2 15 Norte 51 Norte 4 -- -- 100
2020-01-20 11:00:00 1.1 11 Norte 26 Norte 3.4 -- -- 100
2020-01-20 10:00:00 0.2 0 Calma 19 Norte 0.6 -- -- 100
2020-01-20 09:00:00 0.1 11 Norte 19 Norte 0 -- -- 100
2020-01-20 08:00:00 0 11 Noroeste 31 Norte 0.2 -- -- 99
2020-01-20 07:00:00 0 21 Norte 31 Nordeste 0 -- -- 99
2020-01-20 06:00:00 0.2 17 Norte 45 Norte 0.8 -- -- 99
2020-01-20 05:00:00 0.4 23 Norte 58 Norte 1.8 -- -- 99
2020-01-20 04:00:00 1.2 22 Norte 58 Norte 3.2 -- -- 99
2020-01-20 03:00:00 2.2 35 Norte 58 Norte 2.6 -- -- 99
2020-01-20 02:00:00 2.3 24 Norte 59 Norte 4.6 -- -- 99
2020-01-20 01:00:00 2.7 33 Norte 54 Nordeste 3.8 -- -- 99
2020-01-20 00:00:00 3.3 30 Norte 63 Nordeste 3.2 -- -- 99
2020-01-19 23:00:00 3.3 32 Norte 53 Norte 3.4 -- -- 99
2020-01-19 22:00:00 3.1 20 Norte 77 Norte 2.2 -- -- 99
2020-01-19 21:00:00 3.1 35 Nordeste 62 Nordeste 3.6 -- -- 99
2020-01-19 20:00:00 3.1 32 Nordeste 66 Norte 4 -- -- 99
2020-01-19 19:00:00 2.8 21 Norte 45 Norte 2.4 -- -- 99
2020-01-19 18:00:00 1.9 14 Norte 31 Norte 3.4 -- -- 98
2020-01-19 17:00:00 1.4 18 Norte 40 Norte 5 -- -- 98
2020-01-19 16:00:00 1.7 24 Norte 40 Norte 3.4 -- -- 96
2020-01-19 15:00:00 3.5 18 Norte 37 Norte 1.2 -- -- 92
2020-01-19 14:00:00 5.6 23 Norte 37 Norte 0 -- -- 86
2020-01-19 13:00:00 6.9 24 Norte 35 Norte 0 -- -- 86
2020-01-19 12:00:00 6.9 15 Norte 25 Norte 0.2 -- -- 88
2020-01-19 11:00:00 7.6 17 Norte 30 Noroeste 0 -- -- 83
2020-01-19 10:00:00 8.3 13 Norte 21 Noroeste 0 -- -- 80
2020-01-19 09:00:00 7.1 15 Norte 25 Norte 0 -- -- 81
2020-01-19 08:00:00 5.3 8 Norte 15 Noroeste 0 -- -- 89
2020-01-19 07:00:00 5.7 9 Noroeste 22 Noroeste 0 -- -- 87
2020-01-19 06:00:00 6.9 13 Oeste 17 Oeste 0 -- -- 90
2020-01-19 05:00:00 7.1 8 Noroeste 25 Oeste 0.2 -- -- 91
2020-01-19 04:00:00 7.6 10 Oeste 23 Oeste 1 -- -- 91
2020-01-19 03:00:00 4.5 4 Noroeste 12 Oeste 0 -- -- 88
2020-01-19 02:00:00 5.8 3 Oeste 9 Nordeste 0 -- -- 82
2020-01-19 01:00:00 7.5 0 Calma 8 Norte 0 -- -- 78
2020-01-19 00:00:00 8 5 Norte 9 Oeste 0 -- -- 79
2020-01-18 23:00:00 8.1 7 Sur 14 Sudeste 0 -- -- 75
2020-01-18 22:00:00 9.7 8 Sur 14 Sudeste 0 -- -- 70
2020-01-18 21:00:00 9.3 9 Sudeste 15 Sudeste 0 -- -- 70
2020-01-18 20:00:00 8.9 9 Sudeste 14 Sudeste 0 -- -- 71
2020-01-18 19:00:00 9.9 10 Sur 19 Sudoeste 0 -- -- 65
2020-01-18 18:00:00 12.9 10 Sudoeste 21 Oeste 0 -- -- 57
2020-01-18 17:00:00 14.6 11 Oeste 25 Sudoeste 0 -- -- 53
2020-01-18 16:00:00 14.3 16 Oeste 29 Oeste 0 -- -- 52
2020-01-18 15:00:00 13.9 15 Oeste 27 Sudoeste 0 -- -- 51
2020-01-18 14:00:00 13.1 4 Sur 13 Este 0 -- -- 59
2020-01-18 13:00:00 10.6 4 Este 7 Este 0 -- -- 71
2020-01-18 12:00:00 8.6 5 Norte 9 Norte 0 -- -- 79
2020-01-18 11:00:00 7 0 Calma 5 Norte 0 -- -- 86
2020-01-18 10:00:00 4.7 2 Sudeste 10 Norte 0 -- -- 90
2020-01-18 09:00:00 3.3 6 Norte 9 Norte 0 -- -- 92
2020-01-18 08:00:00 2.7 2 Norte 6 Norte 0 -- -- 90
2020-01-18 07:00:00 2.8 0 Calma 9 Noroeste 0 -- -- 89
2020-01-18 06:00:00 3 0 Calma 9 Sudoeste 0 -- -- 86
2020-01-18 05:00:00 4.1 2 Oeste 11 Oeste 0 -- -- 86
2020-01-18 04:00:00 4.4 9 Norte 12 Norte 0 -- -- 86
2020-01-18 03:00:00 4.6 0 Calma 7 Oeste 0 -- -- 80
2020-01-18 02:00:00 5.6 2 Noroeste 10 Nordeste 0 -- -- 79
2020-01-18 01:00:00 6.2 0 Calma 8 Norte 0 -- -- 76
2020-01-18 00:00:00 7 8 Norte 14 Noroeste 0 -- -- 72
2020-01-17 23:00:00 7.8 6 Noroeste 13 Noroeste 0 -- -- 73
2020-01-17 22:00:00 6.1 9 Noroeste 13 Noroeste 0 -- -- 76
2020-01-17 21:00:00 7.4 9 Noroeste 18 Noroeste 0 -- -- 70
2020-01-17 20:00:00 8.2 10 Noroeste 19 Noroeste 0 -- -- 66
2020-01-17 19:00:00 10.3 14 Noroeste 27 Noroeste 0 -- -- 61
2020-01-17 18:00:00 13.2 18 Noroeste 34 Noroeste 0 -- -- 52
2020-01-17 17:00:00 14.5 19 Noroeste 38 Oeste 0 -- -- 49
2020-01-17 16:00:00 15.8 26 Noroeste 41 Noroeste 0 -- -- 46
2020-01-17 15:00:00 16.2 25 Noroeste 40 Noroeste 0 -- -- 48
2020-01-17 14:00:00 16.5 25 Noroeste 46 Noroeste 0 -- -- 47
2020-01-17 13:00:00 15.5 27 Noroeste 57 Noroeste 0 -- -- 52
2020-01-17 12:00:00 14.5 32 Noroeste 55 Noroeste 0 -- -- 55
2020-01-17 11:00:00 10.1 12 Noroeste 17 Norte 0 -- -- 65
2020-01-17 10:00:00 2.6 4 Nordeste 7 Nordeste 0 -- -- 93
2020-01-17 09:00:00 -1.5 0 Calma 7 Oeste 0 -- -- 95
2020-01-17 08:00:00 -1.8 2 Nordeste 12 Noroeste 0 -- -- 94
2020-01-17 07:00:00 -3.6 4 Noroeste 6 Sudoeste 0 -- -- 94
2020-01-17 06:00:00 -3.1 2 Noroeste 7 Este 0 -- -- 94
2020-01-17 05:00:00 -3.2 0 Calma 4 Sudoeste 0 -- -- 93
2020-01-17 04:00:00 -1.6 0 Calma 5 Oeste 0 -- -- 93
2020-01-17 03:00:00 -1.4 5 Noroeste 8 Noroeste 0 -- -- 93
2020-01-17 02:00:00 -1.4 5 Noroeste 8 Norte 0 -- -- 91
2020-01-17 01:00:00 -1.1 0 Calma 2 Noroeste 0 -- -- 88
2020-01-17 00:00:00 0.7 0 Calma 4 Oeste 0 -- -- 89
2020-01-16 23:00:00 1.9 5 Norte 6 Norte 0 -- -- 86
2020-01-16 22:00:00 4.3 0 Calma 9 Sur 0 -- -- 78
2020-01-16 21:00:00 6.4 9 Sudeste 18 Sudeste 0 -- -- 79
2020-01-16 20:00:00 7.7 13 Sudeste 18 Sudeste 0 -- -- 76
2020-01-16 19:00:00 9.9 3 Sudeste 13 Sudeste 0 -- -- 65
2020-01-16 18:00:00 12.7 12 Sudeste 18 Sudeste 0 -- -- 59
2020-01-16 17:00:00 15.1 11 Sudeste 18 Sudeste 0 -- -- 56
2020-01-16 16:00:00 16.1 9 Sur 18 Sur 0 -- -- 50
2020-01-16 15:00:00 17.2 8 Sur 18 Sur 0 -- -- 47
2020-01-16 14:00:00 16.7 12 Sur 24 Sudoeste 0 -- -- 48
2020-01-16 13:00:00 14.8 3 Sur 9 Norte 0 -- -- 55
2020-01-16 12:00:00 11.5 3 Norte 8 Norte 0 -- -- 65
2020-01-16 11:00:00 7.9 4 Noroeste 10 Noroeste 0 -- -- 77
2020-01-16 10:00:00 3.2 4 Norte 8 Noroeste 0 -- -- 94
2020-01-16 09:00:00 -0.6 4 Noroeste 10 Norte 0 -- -- 96
2020-01-16 08:00:00 -1.7 2 Oeste 10 Norte 0 -- -- 94
2020-01-16 07:00:00 -0.8 9 Norte 10 Noroeste 0 -- -- 95
2020-01-16 06:00:00 -1 3 Norte 9 Noroeste 0 -- -- 93
2020-01-16 05:00:00 0.3 9 Norte 17 Norte 0 -- -- 94
2020-01-16 04:00:00 0.6 10 Norte 12 Norte 0 -- -- 93
2020-01-16 03:00:00 0.7 5 Noroeste 12 Norte 0 -- -- 92
2020-01-16 02:00:00 0.3 7 Noroeste 12 Noroeste 0 -- -- 92
2020-01-16 01:00:00 0.5 3 Noroeste 10 Norte 0 -- -- 90
2020-01-16 00:00:00 -0.1 0 Calma 8 Noroeste 0 -- -- 86
2020-01-15 23:00:00 0.6 0 Calma 3 Oeste 0 -- -- 83
2020-01-15 22:00:00 1.4 2 Nordeste 5 Oeste 0 -- -- 77
2020-01-15 21:00:00 3.5 0 Calma 8 Oeste 0 -- -- 73
2020-01-15 20:00:00 7.1 3 Sudoeste 8 Noroeste 0 -- -- 61
2020-01-15 19:00:00 9.6 5 Norte 21 Noroeste 0 -- -- 61
2020-01-15 18:00:00 13.7 13 Noroeste 30 Noroeste 0 -- -- 48
2020-01-15 17:00:00 16 20 Noroeste 31 Noroeste 0 -- -- 43
2020-01-15 16:00:00 16.3 21 Noroeste 35 Noroeste 0 -- -- 37
2020-01-15 15:00:00 16.2 11 Oeste 21 Oeste 0 -- -- 43
2020-01-15 14:00:00 14 5 Noroeste 15 Oeste 0 -- -- 50
2020-01-15 13:00:00 12.7 5 Noroeste 12 Norte 0 -- -- 54
2020-01-15 12:00:00 9.3 5 Norte 8 Noroeste 0 -- -- 65
2020-01-15 11:00:00 5.3 2 Noroeste 4 Noroeste 0 -- -- 82
2020-01-15 10:00:00 1.3 0 Calma 4 Norte 0 -- -- 92
2020-01-15 09:00:00 -3 0 Calma 8 Norte 0 -- -- 94
2020-01-15 08:00:00 -2.9 4 Norte 9 Norte 0 -- -- 92
2020-01-15 07:00:00 -1.8 4 Noroeste 12 Noroeste 0 -- -- 92
2020-01-15 06:00:00 -1.7 10 Norte 12 Norte 0 -- -- 93
2020-01-15 05:00:00 -1.9 10 Norte 13 Norte 0 -- -- 92
2020-01-15 04:00:00 -1.2 6 Norte 10 Noroeste 0 -- -- 90
2020-01-15 03:00:00 -0.8 3 Noroeste 10 Noroeste 0 -- -- 89
2020-01-15 02:00:00 -0.3 5 Noroeste 13 Noroeste 0 -- -- 88
2020-01-15 01:00:00 -0.7 7 Norte 14 Noroeste 0 -- -- 84
2020-01-15 00:00:00 2.4 11 Noroeste 14 Noroeste 0 -- -- 83
2020-01-14 23:00:00 3 8 Norte 12 Noroeste 0 -- -- 78
2020-01-14 22:00:00 2.7 9 Noroeste 13 Noroeste 0 -- -- 79
2020-01-14 21:00:00 1.4 0 Calma 8 Noroeste 0 -- -- 72
2020-01-14 20:00:00 2.9 2 Sudoeste 5 Noroeste 0 -- -- 64
2020-01-14 19:00:00 5.8 0 Calma 11 Oeste 0 -- -- 56
2020-01-14 18:00:00 11 8 Noroeste 13 Oeste 0 -- -- 44
2020-01-14 17:00:00 14.9 8 Oeste 16 Oeste 0 -- -- 35
2020-01-14 16:00:00 15.1 10 Oeste 18 Oeste 0 -- -- 37
2020-01-14 15:00:00 14.4 10 Oeste 26 Oeste 0 -- -- 41
2020-01-14 14:00:00 13.5 14 Oeste 30 Oeste 0 -- -- 43
2020-01-14 13:00:00 12.1 16 Oeste 25 Oeste 0 -- -- 49
2020-01-14 12:00:00 10.6 15 Oeste 26 Oeste 0 -- -- 54
2020-01-14 11:00:00 8.5 11 Noroeste 25 Oeste 0 -- -- 61
2020-01-14 10:00:00 4.6 6 Norte 15 Norte 0 -- -- 78
2020-01-14 09:00:00 -0.6 10 Norte 14 Noroeste 0 -- -- 86
2020-01-14 08:00:00 -0.5 9 Norte 21 Norte 0 -- -- 85
2020-01-14 07:00:00 -0.3 10 Norte 14 Norte 0 -- -- 81
2020-01-14 06:00:00 0.7 12 Noroeste 16 Noroeste 0 -- -- 79
2020-01-14 05:00:00 2.9 9 Norte 15 Norte 0 -- -- 73
2020-01-14 04:00:00 2.6 9 Norte 18 Norte 0 -- -- 75
2020-01-14 03:00:00 1.2 11 Norte 18 Norte 0 -- -- 78
2020-01-14 02:00:00 1.5 12 Norte 15 Norte 0 -- -- 77
2020-01-14 01:00:00 2.1 9 Noroeste 15 Noroeste 0 -- -- 76
2020-01-14 00:00:00 2.5 9 Norte 13 Oeste 0 -- -- 73
2020-01-13 23:00:00 2.7 5 Norte 10 Oeste 0 -- -- 70
2020-01-13 22:00:00 3.5 3 Nordeste 12 Oeste 0 -- -- 67
2020-01-13 21:00:00 5.4 9 Oeste 14 Oeste 0 -- -- 63
2020-01-13 20:00:00 6.3 7 Oeste 11 Oeste 0 -- -- 62
2020-01-13 19:00:00 7.5 0 Calma 5 Sur 0 -- -- 53
2020-01-13 18:00:00 11.5 3 Sudoeste 10 Oeste 0 -- -- 44
2020-01-13 17:00:00 14.2 8 Oeste 14 Oeste 0 -- -- 37
2020-01-13 16:00:00 15 10 Oeste 19 Oeste 0 -- -- 37
2020-01-13 15:00:00 14.7 5 Noroeste 14 Noroeste 0 -- -- 36
2020-01-13 14:00:00 14.1 3 Sudoeste 8 Sudoeste 0 -- -- 40
2020-01-13 13:00:00 11.3 0 Calma 6 Sudoeste 0 -- -- 47
2020-01-13 12:00:00 6.8 2 Norte 6 Noroeste 0 -- -- 67
2020-01-13 11:00:00 2.7 3 Norte 8 Norte 0 -- -- 83
2020-01-13 10:00:00 -1.7 3 Norte 5 Noroeste 0 -- -- 93
2020-01-13 09:00:00 -6.6 0 Calma 4 Noroeste 0 -- -- 94
2020-01-13 08:00:00 -7.1 0 Calma 4 Noroeste 0 -- -- 92
2020-01-13 07:00:00 -7.2 3 Noroeste 6 Norte 0 -- -- 92
2020-01-13 06:00:00 -6.3 0 Calma 3 Norte 0 -- -- 92
2020-01-13 05:00:00 -5.9 3 Noroeste 5 Oeste 0 -- -- 93
2020-01-13 04:00:00 -6.1 4 Oeste 5 Oeste 0 -- -- 91
2020-01-13 03:00:00 -5.8 4 Norte 5 Norte 0 -- -- 90
2020-01-13 02:00:00 -4.5 2 Sudoeste 5 Oeste 0 -- -- 89
2020-01-13 01:00:00 -4.4 0 Calma 3 Noroeste 0 -- -- 87
2020-01-13 00:00:00 -3.4 2 Noroeste 3 Noroeste 0 -- -- 86
2020-01-12 23:00:00 -2 0 Calma 6 Noroeste 0 -- -- 85
2020-01-12 22:00:00 0.1 0 Calma 9 Sudeste 0 -- -- 81
2020-01-12 21:00:00 2.9 9 Sudeste 13 Sudeste 0 -- -- 86
2020-01-12 20:00:00 3.8 8 Sudeste 10 Sudeste 0 -- -- 78
2020-01-12 19:00:00 5.8 5 Sudeste 14 Este 0 -- -- 67
2020-01-12 18:00:00 9.8 9 Nordeste 19 Norte 0 -- -- 41
2020-01-12 17:00:00 13.1 11 Nordeste 16 Nordeste 0 -- -- 38
2020-01-12 16:00:00 14.2 7 Noroeste 13 Norte 0 -- -- 34
2020-01-12 15:00:00 14.6 3 Sudoeste 14 Noroeste 0 -- -- 34
2020-01-12 14:00:00 13.5 9 Norte 17 Nordeste 0 -- -- 38
2020-01-12 13:00:00 11.8 8 Norte 15 Norte 0 -- -- 47
2020-01-12 12:00:00 9.6 7 Norte 12 Norte 0 -- -- 56
2020-01-12 11:00:00 6.3 7 Norte 12 Norte 0 -- -- 71
2020-01-12 10:00:00 0.3 3 Norte 9 Norte 0 -- -- 95
2020-01-12 09:00:00 -3.1 8 Norte 11 Norte 0 -- -- 95
2020-01-12 08:00:00 -4.6 8 Noroeste 9 Noroeste 0 -- -- 95
2020-01-12 07:00:00 -4.5 2 Noroeste 9 Norte 0 -- -- 94
2020-01-12 06:00:00 -3.8 8 Norte 10 Norte 0 -- -- 94
2020-01-12 05:00:00 -4.5 6 Noroeste 8 Norte 0 -- -- 94
2020-01-12 04:00:00 -4.8 3 Norte 6 Norte 0 -- -- 93
2020-01-12 03:00:00 -4 0 Calma 4 Oeste 0 -- -- 93
2020-01-12 02:00:00 -3.7 0 Calma 5 Oeste 0 -- -- 92
2020-01-12 01:00:00 -2.6 3 Noroeste 6 Oeste 0 -- -- 92
2020-01-12 00:00:00 -1.9 4 Noroeste 8 Oeste 0 -- -- 91
2020-01-11 23:00:00 -1.1 0 Calma 4 Noroeste 0 -- -- 89
2020-01-11 22:00:00 0.3 3 Noroeste 4 Norte 0 -- -- 88
2020-01-11 21:00:00 2.3 0 Calma 12 Sudeste 0 -- -- 83
2020-01-11 20:00:00 4.7 10 Sudeste 12 Sudeste 0 -- -- 80
2020-01-11 19:00:00 7 6 Sudeste 12 Sudeste 0 -- -- 74
2020-01-11 18:00:00 9.9 4 Nordeste 11 Nordeste 0 -- -- 51
2020-01-11 17:00:00 12.4 6 Este 15 Nordeste 0 -- -- 47
2020-01-11 16:00:00 13 9 Nordeste 18 Norte 0 -- -- 49
2020-01-11 15:00:00 12.9 6 Nordeste 17 Nordeste 0 -- -- 52
2020-01-11 14:00:00 12.4 5 Noroeste 14 Norte 0 -- -- 53
2020-01-11 13:00:00 11.6 8 Noroeste 17 Noroeste 0 -- -- 60
2020-01-11 12:00:00 10 6 Noroeste 19 Noroeste 0 -- -- 65
2020-01-11 11:00:00 8.1 8 Norte 14 Noroeste 0 -- -- 71
2020-01-11 10:00:00 3.9 6 Norte 11 Norte 0 -- -- 90
2020-01-11 09:00:00 1.5 9 Noroeste 12 Noroeste 0 -- -- 95
2020-01-11 08:00:00 0.1 4 Noroeste 11 Norte 0 -- -- 93
2020-01-11 07:00:00 0.9 5 Norte 15 Noroeste 0 -- -- 93
2020-01-11 06:00:00 2.5 10 Oeste 13 Oeste 0 -- -- 94
2020-01-11 05:00:00 3 5 Noroeste 12 Norte 0 -- -- 93
2020-01-11 04:00:00 3.9 6 Norte 15 Oeste 0 -- -- 92
2020-01-11 03:00:00 3.9 6 Noroeste 13 Noroeste 0 -- -- 94
2020-01-11 02:00:00 4.9 6 Noroeste 10 Norte 0 -- -- 92
2020-01-11 01:00:00 5.2 8 Norte 14 Norte 0 -- -- 90
2020-01-11 00:00:00 6.4 5 Norte 11 Norte 0 -- -- 88
2020-01-10 23:00:00 6.7 6 Nordeste 24 Nordeste 0 -- -- 88
2020-01-10 22:00:00 6.9 11 Nordeste 28 Norte 0 -- -- 83
2020-01-10 21:00:00 7.5 9 Norte 27 Norte 0 -- -- 80
2020-01-10 20:00:00 7.5 11 Norte 29 Norte 0 -- -- 78
2020-01-10 19:00:00 7.4 11 Norte 29 Nordeste 0 -- -- 79
2020-01-10 18:00:00 8.7 26 Nordeste 44 Nordeste 0 -- -- 68
2020-01-10 17:00:00 10.6 22 Nordeste 35 Norte 0 -- -- 56
2020-01-10 16:00:00 12.4 13 Norte 33 Nordeste 0 -- -- 50
2020-01-10 15:00:00 12.8 20 Nordeste 36 Este 0 -- -- 47
2020-01-10 14:00:00 13.3 22 Norte 34 Norte 0 -- -- 52
2020-01-10 13:00:00 12.7 14 Norte 32 Norte 0 -- -- 62
2020-01-10 12:00:00 9.8 10 Norte 21 Norte 0 -- -- 76
2020-01-10 11:00:00 7.5 9 Norte 16 Noroeste 0 -- -- 87
2020-01-10 10:00:00 5.4 10 Norte 15 Noroeste 0 -- -- 93
2020-01-10 09:00:00 3.2 10 Norte 21 Noroeste 0 -- -- 88
2020-01-10 08:00:00 5.4 13 Noroeste 22 Noroeste 0 -- -- 91
2020-01-10 07:00:00 3.7 8 Noroeste 24 Oeste 0 -- -- 94
2020-01-10 06:00:00 1.3 6 Norte 10 Noroeste 0 -- -- 97
2020-01-10 05:00:00 0.2 5 Norte 9 Noroeste 0 -- -- 96
2020-01-10 04:00:00 -0.6 5 Norte 8 Noroeste 0 -- -- 96
2020-01-10 03:00:00 -0.2 5 Este 6 Este 0 -- -- 96
2020-01-10 02:00:00 -0.5 2 Norte 4 Norte 0 -- -- 93
2020-01-10 01:00:00 0.9 0 Calma 3 Norte 0 -- -- 92
2020-01-10 00:00:00 2.6 0 Calma 4 Noroeste 0 -- -- 89
2020-01-09 23:00:00 5.8 4 Sudeste 10 Sudoeste 0 -- -- 89
2020-01-09 22:00:00 7 11 Sudeste 17 Sudeste 0 -- -- 86
2020-01-09 21:00:00 6.6 12 Sudeste 15 Sudeste 0 -- -- 87
2020-01-09 20:00:00 7.2 13 Sudeste 17 Sudeste 0 -- -- 86
2020-01-09 19:00:00 8.2 5 Sur 18 Sudeste 0 -- -- 78
2020-01-09 18:00:00 10.3 10 Sudeste 15 Sudeste 0 -- -- 70
2020-01-09 17:00:00 13.2 4 Sudeste 8 Sudoeste 0 -- -- 62
2020-01-09 16:00:00 13.4 4 Sur 11 Sudoeste 0 -- -- 64
2020-01-09 15:00:00 12.6 4 Oeste 13 Sudoeste 0 -- -- 68
2020-01-09 14:00:00 10.4 3 Nordeste 12 Noroeste 0 -- -- 80
2020-01-09 13:00:00 7.5 5 Norte 10 Nordeste 0 -- -- 99
2020-01-09 12:00:00 5.3 4 Noroeste 11 Noroeste 0 -- -- 99
2020-01-09 11:00:00 4.6 6 Noroeste 10 Noroeste 0 -- -- 99
2020-01-09 10:00:00 4.2 5 Noroeste 9 Norte 0 -- -- 99
2020-01-09 09:00:00 3.7 4 Norte 9 Norte 0 -- -- 99
2020-01-09 08:00:00 3.6 6 Norte 10 Norte 0 -- -- 98
2020-01-09 07:00:00 3.8 4 Norte 9 Norte 0 -- -- 98
2020-01-09 06:00:00 3.7 4 Norte 9 Norte 0 -- -- 98
2020-01-09 05:00:00 3.7 6 Noroeste 11 Noroeste 0 -- -- 98
2020-01-09 04:00:00 3.7 5 Noroeste 10 Norte 0 -- -- 97
2020-01-09 03:00:00 4 3 Norte 8 Norte 0 -- -- 97
2020-01-09 02:00:00 3.4 4 Norte 5 Noroeste 0 -- -- 96
2020-01-09 01:00:00 1.8 0 Calma 7 Noroeste 0 -- -- 95
2020-01-09 00:00:00 0.4 3 Noroeste 6 Noroeste 0 -- -- 94
2020-01-08 23:00:00 2.6 3 Noroeste 8 Norte 0 -- -- 94
2020-01-08 22:00:00 4 5 Noroeste 11 Noroeste 0 -- -- 94
2020-01-08 21:00:00 4.8 3 Oeste 15 Norte 0 -- -- 91
2020-01-08 20:00:00 6.2 7 Noroeste 17 Norte 0 -- -- 89
2020-01-08 19:00:00 7.5 9 Norte 14 Nordeste 0 -- -- 85
2020-01-08 18:00:00 9.8 12 Nordeste 20 Nordeste 0 -- -- 72
2020-01-08 17:00:00 12.6 11 Nordeste 20 Nordeste 0 -- -- 61
2020-01-08 16:00:00 14.3 5 Este 19 Nordeste 0 -- -- 60
2020-01-08 15:00:00 14.6 15 Nordeste 25 Nordeste 0 -- -- 49
2020-01-08 14:00:00 15.8 3 Sudoeste 9 Sur 0 -- -- 42
2020-01-08 13:00:00 14 2 Sur 7 Nordeste 0 -- -- 49
2020-01-08 12:00:00 10.1 2 Norte 10 Norte 0 -- -- 63
2020-01-08 11:00:00 7 4 Norte 10 Noroeste 0 -- -- 75
2020-01-08 10:00:00 2.1 9 Norte 13 Noroeste 0 -- -- 95
2020-01-08 09:00:00 -1.4 3 Norte 10 Norte 0 -- -- 96
2020-01-08 08:00:00 -2.1 4 Oeste 6 Oeste 0 -- -- 95
2020-01-08 07:00:00 -1.3 11 Norte 14 Norte 0 -- -- 96
2020-01-08 06:00:00 -1.9 5 Norte 10 Norte 0 -- -- 96
2020-01-08 05:00:00 -1.5 3 Noroeste 8 Norte 0 -- -- 96
2020-01-08 04:00:00 -0.9 8 Norte 11 Norte 0 -- -- 95
2020-01-08 03:00:00 -1.6 3 Noroeste 7 Norte 0 -- -- 95
2020-01-08 02:00:00 -0.8 2 Noroeste 9 Noroeste 0 -- -- 95
2020-01-08 01:00:00 -1.5 2 Noroeste 7 Sudoeste 0 -- -- 94
2020-01-08 00:00:00 -0.9 3 Noroeste 8 Noroeste 0 -- -- 93
2020-01-07 23:00:00 -0.5 3 Norte 5 Norte 0 -- -- 91
2020-01-07 22:00:00 1 2 Oeste 4 Sudoeste 0 -- -- 90
2020-01-07 21:00:00 3.6 0 Calma 8 Sur 0 -- -- 88
2020-01-07 20:00:00 5.7 6 Sudeste 17 Sudeste 0 -- -- 83
2020-01-07 19:00:00 7.6 15 Sudeste 17 Sudeste 0 -- -- 81
2020-01-07 18:00:00 10.1 14 Sudeste 20 Sudeste 0 -- -- 74
2020-01-07 17:00:00 13.5 16 Sudeste 22 Sudeste 0 -- -- 61
2020-01-07 16:00:00 15.5 14 Sudeste 18 Sudeste 0 -- -- 51
2020-01-07 15:00:00 16.6 2 Sudeste 8 Sur 0 -- -- 40
2020-01-07 14:00:00 15.2 3 Sudoeste 10 Sudeste 0 -- -- 46
2020-01-07 13:00:00 12.5 3 Oeste 6 Sudeste 0 -- -- 55
2020-01-07 12:00:00 9.3 2 Sudeste 7 Noroeste 0 -- -- 64
2020-01-07 11:00:00 5.3 4 Norte 7 Norte 0 -- -- 81
2020-01-07 10:00:00 0.4 3 Noroeste 5 Noroeste 0 -- -- 96
2020-01-07 09:00:00 -3.5 2 Norte 3 Noroeste 0 -- -- 96
2020-01-07 08:00:00 -3.6 0 Calma 2 Sur 0 -- -- 95
2020-01-07 07:00:00 -2.4 0 Calma 8 Norte 0 -- -- 95
2020-01-07 06:00:00 -2.1 7 Noroeste 13 Noroeste 0 -- -- 95
2020-01-07 05:00:00 -1.9 3 Oeste 17 Norte 0 -- -- 95
2020-01-07 04:00:00 -2.7 2 Norte 8 Noroeste 0 -- -- 95
2020-01-07 03:00:00 -1.7 5 Noroeste 8 Noroeste 0 -- -- 95
2020-01-07 02:00:00 -1.5 0 Calma 6 Noroeste 0 -- -- 94
2020-01-07 01:00:00 -1.3 4 Noroeste 8 Norte 0 -- -- 94
2020-01-07 00:00:00 -0.5 0 Calma 4 Oeste 0 -- -- 92
2020-01-06 23:00:00 0 2 Oeste 7 Noroeste 0 -- -- 91
2020-01-06 22:00:00 1.1 4 Noroeste 5 Noroeste 0 -- -- 90
2020-01-06 21:00:00 3.7 3 Sudoeste 9 Sur 0 -- -- 85
2020-01-06 20:00:00 5.9 7 Sur 18 Sudeste 0 -- -- 85
2020-01-06 19:00:00 7.4 14 Sudeste 19 Sudeste 0 -- -- 81
2020-01-06 18:00:00 10.1 13 Sudeste 19 Sudeste 0 -- -- 70
2020-01-06 17:00:00 14.4 10 Sudeste 14 Sudeste 0 -- -- 48
2020-01-06 16:00:00 15.4 4 Este 7 Sudeste 0 -- -- 40
2020-01-06 15:00:00 15.2 0 Calma 6 Este 0 -- -- 47
2020-01-06 14:00:00 12.5 0 Calma 4 Sur 0 -- -- 64
2020-01-06 13:00:00 8.4 2 Noroeste 8 Norte 0 -- -- 93
2020-01-06 12:00:00 4.9 4 Norte 10 Norte 0 -- -- 98
2020-01-06 11:00:00 3.7 5 Norte 9 Norte 0 -- -- 98
2020-01-06 10:00:00 1.9 4 Norte 7 Norte 0 -- -- 98